sensor_id;sensor_type;location;lat;lon;timestamp;P1;durP1;ratioP1;P2;durP2;ratioP2
18796;SDS011;9526;52.612;13.300;2022-08-19T00:00:18;17.20;;;15.40;;
18796;SDS011;9526;52.612;13.300;2022-08-19T00:02:42;17.05;;;15.35;;
18796;SDS011;9526;52.612;13.300;2022-08-19T00:05:12;16.73;;;14.80;;
18796;SDS011;9526;52.612;13.300;2022-08-19T00:07:37;16.65;;;14.85;;
18796;SDS011;9526;52.612;13.300;2022-08-19T00:10:01;16.85;;;15.05;;
18796;SDS011;9526;52.612;13.300;2022-08-19T00:12:27;17.67;;;15.63;;
18796;SDS011;9526;52.612;13.300;2022-08-19T00:14:51;17.05;;;15.25;;
18796;SDS011;9526;52.612;13.300;2022-08-19T00:17:15;18.20;;;16.20;;
18796;SDS011;9526;52.612;13.300;2022-08-19T00:19:39;16.88;;;15.18;;
18796;SDS011;9526;52.612;13.300;2022-08-19T00:22:05;19.92;;;15.30;;
18796;SDS011;9526;52.612;13.300;2022-08-19T00:24:29;16.92;;;15.20;;
18796;SDS011;9526;52.612;13.300;2022-08-19T00:26:55;18.67;;;16.17;;
18796;SDS011;9526;52.612;13.300;2022-08-19T00:29:39;15.52;;;13.93;;
18796;SDS011;9526;52.612;13.300;2022-08-19T00:32:03;17.55;;;15.55;;
18796;SDS011;9526;52.612;13.300;2022-08-19T00:34:31;17.20;;;15.40;;
18796;SDS011;9526;52.612;13.300;2022-08-19T00:36:55;16.83;;;15.13;;
18796;SDS011;9526;52.612;13.300;2022-08-19T00:39:21;17.42;;;15.65;;
18796;SDS011;9526;52.612;13.300;2022-08-19T00:41:45;16.63;;;14.93;;
18796;SDS011;9526;52.612;13.300;2022-08-19T00:44:12;16.77;;;15.07;;
18796;SDS011;9526;52.612;13.300;2022-08-19T00:46:48;15.93;;;14.20;;
18796;SDS011;9526;52.612;13.300;2022-08-19T00:49:19;16.38;;;14.68;;
18796;SDS011;9526;52.612;13.300;2022-08-19T00:51:50;18.38;;;14.25;;
18796;SDS011;9526;52.612;13.300;2022-08-19T00:54:17;17.08;;;15.35;;
18796;SDS011;9526;52.612;13.300;2022-08-19T00:56:51;15.48;;;13.80;;
18796;SDS011;9526;52.612;13.300;2022-08-19T00:59:16;17.95;;;14.95;;
18796;SDS011;9526;52.612;13.300;2022-08-19T01:02:02;15.68;;;13.63;;
18796;SDS011;9526;52.612;13.300;2022-08-19T01:04:26;15.20;;;13.70;;
18796;SDS011;9526;52.612;13.300;2022-08-19T01:06:50;14.43;;;13.05;;
18796;SDS011;9526;52.612;13.300;2022-08-19T01:09:14;15.68;;;13.85;;
18796;SDS011;9526;52.612;13.300;2022-08-19T01:11:40;15.93;;;14.07;;
18796;SDS011;9526;52.612;13.300;2022-08-19T01:14:07;16.98;;;13.30;;
18796;SDS011;9526;52.612;13.300;2022-08-19T01:16:33;15.40;;;13.80;;
18796;SDS011;9526;52.612;13.300;2022-08-19T01:18:58;15.82;;;14.18;;
18796;SDS011;9526;52.612;13.300;2022-08-19T01:21:24;14.18;;;12.38;;
18796;SDS011;9526;52.612;13.300;2022-08-19T01:23:56;17.70;;;14.98;;
18796;SDS011;9526;52.612;13.300;2022-08-19T01:26:21;16.98;;;14.73;;
18796;SDS011;9526;52.612;13.300;2022-08-19T01:28:48;19.23;;;15.38;;
18796;SDS011;9526;52.612;13.300;2022-08-19T01:31:20;15.32;;;13.75;;
18796;SDS011;9526;52.612;13.300;2022-08-19T01:33:48;16.58;;;14.70;;
18796;SDS011;9526;52.612;13.300;2022-08-19T01:36:15;16.90;;;14.90;;
18796;SDS011;9526;52.612;13.300;2022-08-19T01:38:47;17.98;;;15.18;;
18796;SDS011;9526;52.612;13.300;2022-08-19T01:41:12;17.08;;;15.32;;
18796;SDS011;9526;52.612;13.300;2022-08-19T01:43:36;17.55;;;15.55;;
18796;SDS011;9526;52.612;13.300;2022-08-19T01:46:20;16.90;;;14.85;;
18796;SDS011;9526;52.612;13.300;2022-08-19T01:48:45;15.50;;;13.90;;
18796;SDS011;9526;52.612;13.300;2022-08-19T01:51:10;15.73;;;14.13;;
18796;SDS011;9526;52.612;13.300;2022-08-19T01:53:34;18.02;;;14.02;;
18796;SDS011;9526;52.612;13.300;2022-08-19T01:55:58;18.92;;;15.80;;
18796;SDS011;9526;52.612;13.300;2022-08-19T01:58:26;16.30;;;14.30;;
18796;SDS011;9526;52.612;13.300;2022-08-19T02:00:54;18.85;;;16.73;;
18796;SDS011;9526;52.612;13.300;2022-08-19T02:03:18;17.83;;;14.68;;
18796;SDS011;9526;52.612;13.300;2022-08-19T02:05:42;18.27;;;16.05;;
18796;SDS011;9526;52.612;13.300;2022-08-19T02:08:07;21.50;;;15.82;;
18796;SDS011;9526;52.612;13.300;2022-08-19T02:10:32;23.73;;;18.45;;
18796;SDS011;9526;52.612;13.300;2022-08-19T02:12:56;21.73;;;16.70;;
18796;SDS011;9526;52.612;13.300;2022-08-19T02:15:22;17.42;;;15.68;;
18796;SDS011;9526;52.612;13.300;2022-08-19T02:17:47;19.35;;;15.60;;
18796;SDS011;9526;52.612;13.300;2022-08-19T02:20:12;24.05;;;16.73;;
18796;SDS011;9526;52.612;13.300;2022-08-19T02:22:36;20.77;;;17.27;;
18796;SDS011;9526;52.612;13.300;2022-08-19T02:25:03;20.92;;;17.10;;
18796;SDS011;9526;52.612;13.300;2022-08-19T02:27:27;22.70;;;17.17;;
18796;SDS011;9526;52.612;13.300;2022-08-19T02:29:52;20.27;;;18.05;;
18796;SDS011;9526;52.612;13.300;2022-08-19T02:32:18;27.98;;;19.08;;
18796;SDS011;9526;52.612;13.300;2022-08-19T02:34:43;22.60;;;18.63;;
18796;SDS011;9526;52.612;13.300;2022-08-19T02:37:06;23.67;;;18.95;;
18796;SDS011;9526;52.612;13.300;2022-08-19T02:39:55;19.65;;;17.55;;
18796;SDS011;9526;52.612;13.300;2022-08-19T02:42:18;25.70;;;19.35;;
18796;SDS011;9526;52.612;13.300;2022-08-19T02:44:42;25.77;;;18.42;;
18796;SDS011;9526;52.612;13.300;2022-08-19T02:47:06;23.67;;;18.88;;
18796;SDS011;9526;52.612;13.300;2022-08-19T02:49:32;36.80;;;19.27;;
18796;SDS011;9526;52.612;13.300;2022-08-19T02:51:55;28.60;;;20.95;;
18796;SDS011;9526;52.612;13.300;2022-08-19T02:54:19;26.15;;;21.15;;
18796;SDS011;9526;52.612;13.300;2022-08-19T02:56:43;22.33;;;19.05;;
18796;SDS011;9526;52.612;13.300;2022-08-19T02:59:08;27.08;;;21.30;;
18796;SDS011;9526;52.612;13.300;2022-08-19T03:01:33;25.73;;;20.52;;
18796;SDS011;9526;52.612;13.300;2022-08-19T03:03:58;30.25;;;22.40;;
18796;SDS011;9526;52.612;13.300;2022-08-19T03:06:25;30.13;;;21.40;;
18796;SDS011;9526;52.612;13.300;2022-08-19T03:08:50;25.33;;;20.73;;
18796;SDS011;9526;52.612;13.300;2022-08-19T03:11:15;27.50;;;20.95;;
18796;SDS011;9526;52.612;13.300;2022-08-19T03:13:41;27.88;;;21.25;;
18796;SDS011;9526;52.612;13.300;2022-08-19T03:16:05;27.15;;;20.95;;
18796;SDS011;9526;52.612;13.300;2022-08-19T03:18:29;26.75;;;20.42;;
18796;SDS011;9526;52.612;13.300;2022-08-19T03:20:53;22.25;;;18.45;;
18796;SDS011;9526;52.612;13.300;2022-08-19T03:23:19;23.83;;;19.58;;
18796;SDS011;9526;52.612;13.300;2022-08-19T03:25:45;22.77;;;19.48;;
18796;SDS011;9526;52.612;13.300;2022-08-19T03:28:32;29.80;;;19.88;;
18796;SDS011;9526;52.612;13.300;2022-08-19T03:30:57;27.70;;;21.10;;
18796;SDS011;9526;52.612;13.300;2022-08-19T03:33:24;27.77;;;21.30;;
18796;SDS011;9526;52.612;13.300;2022-08-19T03:35:59;24.73;;;19.92;;
18796;SDS011;9526;52.612;13.300;2022-08-19T03:38:31;31.80;;;21.50;;
18796;SDS011;9526;52.612;13.300;2022-08-19T03:40:55;29.50;;;21.55;;
18796;SDS011;9526;52.612;13.300;2022-08-19T03:43:19;29.90;;;20.52;;
18796;SDS011;9526;52.612;13.300;2022-08-19T03:45:43;24.88;;;20.25;;
18796;SDS011;9526;52.612;13.300;2022-08-19T03:48:06;28.45;;;19.55;;
18796;SDS011;9526;52.612;13.300;2022-08-19T03:50:31;30.30;;;21.08;;
18796;SDS011;9526;52.612;13.300;2022-08-19T03:52:54;44.05;;;23.00;;
18796;SDS011;9526;52.612;13.300;2022-08-19T03:55:20;31.52;;;20.80;;
18796;SDS011;9526;52.612;13.300;2022-08-19T03:57:43;38.60;;;23.42;;
18796;SDS011;9526;52.612;13.300;2022-08-19T04:00:09;38.38;;;23.98;;
18796;SDS011;9526;52.612;13.300;2022-08-19T04:02:34;26.30;;;21.30;;
18796;SDS011;9526;52.612;13.300;2022-08-19T04:04:58;23.35;;;19.23;;
18796;SDS011;9526;52.612;13.300;2022-08-19T04:07:22;25.88;;;20.30;;
18796;SDS011;9526;52.612;13.300;2022-08-19T04:09:46;24.02;;;20.33;;
18796;SDS011;9526;52.612;13.300;2022-08-19T04:12:11;21.60;;;19.05;;
18796;SDS011;9526;52.612;13.300;2022-08-19T04:14:36;21.02;;;17.80;;
18796;SDS011;9526;52.612;13.300;2022-08-19T04:17:02;21.45;;;18.17;;
18796;SDS011;9526;52.612;13.300;2022-08-19T04:19:28;23.20;;;17.60;;
18796;SDS011;9526;52.612;13.300;2022-08-19T04:21:54;20.33;;;18.13;;
18796;SDS011;9526;52.612;13.300;2022-08-19T04:24:18;20.75;;;17.55;;
18796;SDS011;9526;52.612;13.300;2022-08-19T04:26:43;19.83;;;17.55;;
18796;SDS011;9526;52.612;13.300;2022-08-19T04:29:10;21.15;;;17.83;;
18796;SDS011;9526;52.612;13.300;2022-08-19T04:31:36;20.10;;;16.90;;
18796;SDS011;9526;52.612;13.300;2022-08-19T04:34:00;19.75;;;16.75;;
18796;SDS011;9526;52.612;13.300;2022-08-19T04:36:29;22.75;;;17.67;;
18796;SDS011;9526;52.612;13.300;2022-08-19T04:38:56;19.35;;;16.48;;
18796;SDS011;9526;52.612;13.300;2022-08-19T04:41:23;25.65;;;17.35;;
18796;SDS011;9526;52.612;13.300;2022-08-19T04:44:05;22.23;;;17.73;;
18796;SDS011;9526;52.612;13.300;2022-08-19T04:46:30;19.30;;;17.23;;
18796;SDS011;9526;52.612;13.300;2022-08-19T04:49:11;21.95;;;17.10;;
18796;SDS011;9526;52.612;13.300;2022-08-19T04:51:36;19.73;;;16.30;;
18796;SDS011;9526;52.612;13.300;2022-08-19T04:54:03;26.70;;;17.83;;
18796;SDS011;9526;52.612;13.300;2022-08-19T04:56:27;22.80;;;16.55;;
18796;SDS011;9526;52.612;13.300;2022-08-19T04:58:52;20.20;;;17.20;;
18796;SDS011;9526;52.612;13.300;2022-08-19T05:01:18;21.63;;;17.52;;
18796;SDS011;9526;52.612;13.300;2022-08-19T05:03:46;21.55;;;17.83;;
18796;SDS011;9526;52.612;13.300;2022-08-19T05:06:14;22.27;;;19.00;;
18796;SDS011;9526;52.612;13.300;2022-08-19T05:08:41;22.35;;;18.73;;
18796;SDS011;9526;52.612;13.300;2022-08-19T05:11:07;22.15;;;17.10;;
18796;SDS011;9526;52.612;13.300;2022-08-19T05:13:34;22.58;;;18.50;;
18796;SDS011;9526;52.612;13.300;2022-08-19T05:16:02;19.02;;;16.98;;
18796;SDS011;9526;52.612;13.300;2022-08-19T05:18:27;18.73;;;16.73;;
18796;SDS011;9526;52.612;13.300;2022-08-19T05:21:10;20.38;;;18.17;;
18796;SDS011;9526;52.612;13.300;2022-08-19T05:23:54;20.17;;;17.85;;
18796;SDS011;9526;52.612;13.300;2022-08-19T05:26:18;22.15;;;18.15;;
18796;SDS011;9526;52.612;13.300;2022-08-19T05:28:42;20.52;;;17.23;;
18796;SDS011;9526;52.612;13.300;2022-08-19T05:31:06;22.27;;;17.30;;
18796;SDS011;9526;52.612;13.300;2022-08-19T05:33:30;18.58;;;16.70;;
18796;SDS011;9526;52.612;13.300;2022-08-19T05:35:53;19.33;;;17.25;;
18796;SDS011;9526;52.612;13.300;2022-08-19T05:38:19;26.40;;;17.83;;
18796;SDS011;9526;52.612;13.300;2022-08-19T05:40:43;18.52;;;16.48;;
18796;SDS011;9526;52.612;13.300;2022-08-19T05:43:08;19.92;;;16.10;;
18796;SDS011;9526;52.612;13.300;2022-08-19T05:45:31;19.33;;;16.70;;
18796;SDS011;9526;52.612;13.300;2022-08-19T05:48:00;19.45;;;16.52;;
18796;SDS011;9526;52.612;13.300;2022-08-19T05:50:24;17.83;;;16.02;;
18796;SDS011;9526;52.612;13.300;2022-08-19T05:52:48;21.30;;;17.92;;
18796;SDS011;9526;52.612;13.300;2022-08-19T05:55:13;17.27;;;15.48;;
18796;SDS011;9526;52.612;13.300;2022-08-19T05:57:38;18.70;;;16.10;;
18796;SDS011;9526;52.612;13.300;2022-08-19T06:00:03;19.40;;;16.48;;
18796;SDS011;9526;52.612;13.300;2022-08-19T06:02:32;18.88;;;16.67;;
18796;SDS011;9526;52.612;13.300;2022-08-19T06:04:56;16.80;;;14.48;;
18796;SDS011;9526;52.612;13.300;2022-08-19T06:07:20;17.17;;;15.25;;
18796;SDS011;9526;52.612;13.300;2022-08-19T06:09:44;16.52;;;14.82;;
18796;SDS011;9526;52.612;13.300;2022-08-19T06:12:23;16.95;;;14.95;;
18796;SDS011;9526;52.612;13.300;2022-08-19T06:14:56;16.33;;;14.27;;
18796;SDS011;9526;52.612;13.300;2022-08-19T06:17:22;16.27;;;14.63;;
18796;SDS011;9526;52.612;13.300;2022-08-19T06:19:47;17.48;;;15.23;;
18796;SDS011;9526;52.612;13.300;2022-08-19T06:22:11;16.15;;;14.30;;
18796;SDS011;9526;52.612;13.300;2022-08-19T06:24:35;20.08;;;15.63;;
18796;SDS011;9526;52.612;13.300;2022-08-19T06:26:59;20.17;;;17.83;;
18796;SDS011;9526;52.612;13.300;2022-08-19T06:29:25;17.83;;;15.70;;
18796;SDS011;9526;52.612;13.300;2022-08-19T06:31:51;17.58;;;15.70;;
18796;SDS011;9526;52.612;13.300;2022-08-19T06:34:18;19.40;;;16.77;;
18796;SDS011;9526;52.612;13.300;2022-08-19T06:36:43;18.50;;;16.23;;
18796;SDS011;9526;52.612;13.300;2022-08-19T06:39:11;19.95;;;16.70;;
18796;SDS011;9526;52.612;13.300;2022-08-19T06:41:38;20.13;;;16.42;;
18796;SDS011;9526;52.612;13.300;2022-08-19T06:44:12;17.92;;;16.05;;
18796;SDS011;9526;52.612;13.300;2022-08-19T06:46:39;18.70;;;16.70;;
18796;SDS011;9526;52.612;13.300;2022-08-19T06:49:13;17.67;;;15.93;;
18796;SDS011;9526;52.612;13.300;2022-08-19T06:51:37;18.08;;;16.27;;
18796;SDS011;9526;52.612;13.300;2022-08-19T06:54:04;19.83;;;16.52;;
18796;SDS011;9526;52.612;13.300;2022-08-19T06:56:40;20.15;;;18.15;;
18796;SDS011;9526;52.612;13.300;2022-08-19T06:59:05;24.15;;;18.05;;
18796;SDS011;9526;52.612;13.300;2022-08-19T07:01:34;20.35;;;17.70;;
18796;SDS011;9526;52.612;13.300;2022-08-19T07:04:00;19.65;;;17.55;;
18796;SDS011;9526;52.612;13.300;2022-08-19T07:06:24;19.20;;;17.33;;
18796;SDS011;9526;52.612;13.300;2022-08-19T07:09:05;19.13;;;17.23;;
18796;SDS011;9526;52.612;13.300;2022-08-19T07:11:32;19.90;;;17.85;;
18796;SDS011;9526;52.612;13.300;2022-08-19T07:13:56;19.17;;;17.27;;
18796;SDS011;9526;52.612;13.300;2022-08-19T07:16:20;22.10;;;18.02;;
18796;SDS011;9526;52.612;13.300;2022-08-19T07:18:50;20.05;;;17.98;;
18796;SDS011;9526;52.612;13.300;2022-08-19T07:21:16;22.98;;;17.63;;
18796;SDS011;9526;52.612;13.300;2022-08-19T07:23:43;19.52;;;17.50;;
18796;SDS011;9526;52.612;13.300;2022-08-19T07:26:08;20.75;;;17.83;;
18796;SDS011;9526;52.612;13.300;2022-08-19T07:28:35;19.48;;;17.58;;
18796;SDS011;9526;52.612;13.300;2022-08-19T07:31:12;21.95;;;17.45;;
18796;SDS011;9526;52.612;13.300;2022-08-19T07:33:45;19.92;;;17.95;;
18796;SDS011;9526;52.612;13.300;2022-08-19T07:36:14;19.95;;;18.02;;
18796;SDS011;9526;52.612;13.300;2022-08-19T07:38:44;20.45;;;18.45;;
18796;SDS011;9526;52.612;13.300;2022-08-19T07:41:11;21.60;;;19.40;;
18796;SDS011;9526;52.612;13.300;2022-08-19T07:43:38;19.30;;;17.40;;
18796;SDS011;9526;52.612;13.300;2022-08-19T07:46:04;20.27;;;18.00;;
18796;SDS011;9526;52.612;13.300;2022-08-19T07:48:33;20.92;;;18.80;;
18796;SDS011;9526;52.612;13.300;2022-08-19T07:50:58;21.15;;;18.98;;
18796;SDS011;9526;52.612;13.300;2022-08-19T07:53:28;21.10;;;18.88;;
18796;SDS011;9526;52.612;13.300;2022-08-19T07:56:00;21.52;;;19.15;;
18796;SDS011;9526;52.612;13.300;2022-08-19T07:58:25;19.88;;;17.88;;
18796;SDS011;9526;52.612;13.300;2022-08-19T08:00:49;20.40;;;18.25;;
18796;SDS011;9526;52.612;13.300;2022-08-19T08:03:14;22.27;;;18.75;;
18796;SDS011;9526;52.612;13.300;2022-08-19T08:05:40;20.63;;;18.52;;
18796;SDS011;9526;52.612;13.300;2022-08-19T08:08:22;20.48;;;18.35;;
18796;SDS011;9526;52.612;13.300;2022-08-19T08:11:09;19.00;;;16.85;;
18796;SDS011;9526;52.612;13.300;2022-08-19T08:13:36;21.00;;;18.10;;
18796;SDS011;9526;52.612;13.300;2022-08-19T08:15:59;19.92;;;17.92;;
18796;SDS011;9526;52.612;13.300;2022-08-19T08:18:24;19.35;;;16.88;;
18796;SDS011;9526;52.612;13.300;2022-08-19T08:20:50;20.95;;;17.95;;
18796;SDS011;9526;52.612;13.300;2022-08-19T08:23:14;18.30;;;16.50;;
18796;SDS011;9526;52.612;13.300;2022-08-19T08:25:48;22.77;;;17.88;;
18796;SDS011;9526;52.612;13.300;2022-08-19T08:28:13;19.95;;;17.92;;
18796;SDS011;9526;52.612;13.300;2022-08-19T08:30:38;19.95;;;17.10;;
18796;SDS011;9526;52.612;13.300;2022-08-19T08:33:05;19.15;;;17.33;;
18796;SDS011;9526;52.612;13.300;2022-08-19T08:35:29;19.73;;;17.45;;
18796;SDS011;9526;52.612;13.300;2022-08-19T08:37:53;17.27;;;15.38;;
18796;SDS011;9526;52.612;13.300;2022-08-19T08:40:19;19.88;;;17.60;;
18796;SDS011;9526;52.612;13.300;2022-08-19T08:42:47;18.83;;;16.88;;
18796;SDS011;9526;52.612;13.300;2022-08-19T08:45:21;18.13;;;16.30;;
18796;SDS011;9526;52.612;13.300;2022-08-19T08:47:47;19.08;;;17.17;;
18796;SDS011;9526;52.612;13.300;2022-08-19T08:50:16;17.70;;;16.00;;
18796;SDS011;9526;52.612;13.300;2022-08-19T08:52:47;19.25;;;17.25;;
18796;SDS011;9526;52.612;13.300;2022-08-19T08:55:16;21.50;;;18.23;;
18796;SDS011;9526;52.612;13.300;2022-08-19T08:57:44;18.00;;;16.20;;
18796;SDS011;9526;52.612;13.300;2022-08-19T09:00:20;20.30;;;17.50;;
18796;SDS011;9526;52.612;13.300;2022-08-19T09:02:48;17.38;;;15.30;;
18796;SDS011;9526;52.612;13.300;2022-08-19T09:05:12;18.67;;;16.70;;
18796;SDS011;9526;52.612;13.300;2022-08-19T09:07:39;18.20;;;16.33;;
18796;SDS011;9526;52.612;13.300;2022-08-19T09:10:14;17.83;;;15.63;;
18796;SDS011;9526;52.612;13.300;2022-08-19T09:12:48;18.02;;;15.98;;
18796;SDS011;9526;52.612;13.300;2022-08-19T09:15:25;18.55;;;16.73;;
18796;SDS011;9526;52.612;13.300;2022-08-19T09:17:59;18.58;;;16.67;;
18796;SDS011;9526;52.612;13.300;2022-08-19T09:20:27;19.45;;;17.13;;
18796;SDS011;9526;52.612;13.300;2022-08-19T09:22:53;18.90;;;16.90;;
18796;SDS011;9526;52.612;13.300;2022-08-19T09:25:18;17.98;;;16.08;;
18796;SDS011;9526;52.612;13.300;2022-08-19T09:27:50;19.27;;;16.60;;
18796;SDS011;9526;52.612;13.300;2022-08-19T09:30:28;18.75;;;16.15;;
18796;SDS011;9526;52.612;13.300;2022-08-19T09:32:53;18.02;;;16.27;;
18796;SDS011;9526;52.612;13.300;2022-08-19T09:35:18;17.77;;;16.00;;
18796;SDS011;9526;52.612;13.300;2022-08-19T09:37:44;17.65;;;15.85;;
18796;SDS011;9526;52.612;13.300;2022-08-19T09:40:09;17.58;;;14.77;;
18796;SDS011;9526;52.612;13.300;2022-08-19T09:42:35;16.52;;;14.82;;
18796;SDS011;9526;52.612;13.300;2022-08-19T09:45:10;15.43;;;13.82;;
18796;SDS011;9526;52.612;13.300;2022-08-19T09:47:36;16.48;;;14.88;;
18796;SDS011;9526;52.612;13.300;2022-08-19T09:50:01;16.67;;;14.93;;
18796;SDS011;9526;52.612;13.300;2022-08-19T09:52:25;16.63;;;14.93;;
18796;SDS011;9526;52.612;13.300;2022-08-19T09:54:53;15.85;;;14.27;;
18796;SDS011;9526;52.612;13.300;2022-08-19T09:57:17;16.10;;;14.43;;
18796;SDS011;9526;52.612;13.300;2022-08-19T09:59:40;16.85;;;15.20;;
18796;SDS011;9526;52.612;13.300;2022-08-19T10:02:05;16.30;;;14.68;;
18796;SDS011;9526;52.612;13.300;2022-08-19T10:04:33;17.02;;;15.35;;
18796;SDS011;9526;52.612;13.300;2022-08-19T10:07:14;16.00;;;14.25;;
18796;SDS011;9526;52.612;13.300;2022-08-19T10:09:38;16.70;;;14.35;;
18796;SDS011;9526;52.612;13.300;2022-08-19T10:12:03;16.00;;;14.30;;
18796;SDS011;9526;52.612;13.300;2022-08-19T10:14:31;17.98;;;15.52;;
18796;SDS011;9526;52.612;13.300;2022-08-19T10:16:56;16.55;;;14.43;;
18796;SDS011;9526;52.612;13.300;2022-08-19T10:19:40;16.17;;;14.02;;
18796;SDS011;9526;52.612;13.300;2022-08-19T10:22:15;16.00;;;14.20;;
18796;SDS011;9526;52.612;13.300;2022-08-19T10:24:41;15.20;;;13.70;;
18796;SDS011;9526;52.612;13.300;2022-08-19T10:27:05;17.60;;;13.68;;
18796;SDS011;9526;52.612;13.300;2022-08-19T10:29:29;14.65;;;13.30;;
18796;SDS011;9526;52.612;13.300;2022-08-19T10:31:55;15.48;;;13.52;;
18796;SDS011;9526;52.612;13.300;2022-08-19T10:34:22;14.93;;;13.38;;
18796;SDS011;9526;52.612;13.300;2022-08-19T10:36:50;16.48;;;13.93;;
18796;SDS011;9526;52.612;13.300;2022-08-19T10:39:16;16.98;;;14.05;;
18796;SDS011;9526;52.612;13.300;2022-08-19T10:41:44;14.85;;;13.25;;
18796;SDS011;9526;52.612;13.300;2022-08-19T10:44:08;15.50;;;12.75;;
18796;SDS011;9526;52.612;13.300;2022-08-19T10:46:35;17.15;;;13.88;;
18796;SDS011;9526;52.612;13.300;2022-08-19T10:49:09;15.75;;;13.27;;
18796;SDS011;9526;52.612;13.300;2022-08-19T10:51:33;14.95;;;13.45;;
18796;SDS011;9526;52.612;13.300;2022-08-19T10:54:16;15.05;;;12.73;;
18796;SDS011;9526;52.612;13.300;2022-08-19T10:56:54;15.60;;;13.65;;
18796;SDS011;9526;52.612;13.300;2022-08-19T10:59:18;13.95;;;12.45;;
18796;SDS011;9526;52.612;13.300;2022-08-19T11:01:47;14.15;;;12.60;;
18796;SDS011;9526;52.612;13.300;2022-08-19T11:04:24;14.40;;;12.90;;
18796;SDS011;9526;52.612;13.300;2022-08-19T11:06:50;14.60;;;12.75;;
18796;SDS011;9526;52.612;13.300;2022-08-19T11:09:14;14.45;;;13.05;;
18796;SDS011;9526;52.612;13.300;2022-08-19T11:11:42;13.35;;;11.55;;
18796;SDS011;9526;52.612;13.300;2022-08-19T11:14:06;13.95;;;12.63;;
18796;SDS011;9526;52.612;13.300;2022-08-19T11:16:30;13.85;;;12.43;;
18796;SDS011;9526;52.612;13.300;2022-08-19T11:18:55;16.30;;;13.27;;
18796;SDS011;9526;52.612;13.300;2022-08-19T11:21:23;13.50;;;12.20;;
18796;SDS011;9526;52.612;13.300;2022-08-19T11:23:51;13.00;;;11.68;;
18796;SDS011;9526;52.612;13.300;2022-08-19T11:26:17;12.65;;;11.35;;
18796;SDS011;9526;52.612;13.300;2022-08-19T11:28:42;13.57;;;11.23;;
18796;SDS011;9526;52.612;13.300;2022-08-19T11:31:09;11.85;;;10.65;;
18796;SDS011;9526;52.612;13.300;2022-08-19T11:33:34;11.85;;;10.60;;
18796;SDS011;9526;52.612;13.300;2022-08-19T11:35:57;12.63;;;11.40;;
18796;SDS011;9526;52.612;13.300;2022-08-19T11:38:23;12.48;;;11.27;;
18796;SDS011;9526;52.612;13.300;2022-08-19T11:40:53;11.75;;;10.65;;
18796;SDS011;9526;52.612;13.300;2022-08-19T11:43:19;11.15;;;10.02;;
18796;SDS011;9526;52.612;13.300;2022-08-19T11:45:42;11.23;;;10.13;;
18796;SDS011;9526;52.612;13.300;2022-08-19T11:48:07;11.40;;;10.30;;
18796;SDS011;9526;52.612;13.300;2022-08-19T11:50:30;11.38;;;10.18;;
18796;SDS011;9526;52.612;13.300;2022-08-19T11:52:54;12.27;;;10.60;;
18796;SDS011;9526;52.612;13.300;2022-08-19T11:55:20;11.25;;;9.63;;
18796;SDS011;9526;52.612;13.300;2022-08-19T11:57:44;11.32;;;10.13;;
18796;SDS011;9526;52.612;13.300;2022-08-19T12:00:08;10.85;;;9.75;;
18796;SDS011;9526;52.612;13.300;2022-08-19T12:02:34;10.68;;;9.68;;
18796;SDS011;9526;52.612;13.300;2022-08-19T12:04:58;12.18;;;9.70;;
18796;SDS011;9526;52.612;13.300;2022-08-19T12:07:23;10.27;;;9.20;;
18796;SDS011;9526;52.612;13.300;2022-08-19T12:09:47;10.73;;;9.63;;
18796;SDS011;9526;52.612;13.300;2022-08-19T12:12:12;11.18;;;9.88;;
18796;SDS011;9526;52.612;13.300;2022-08-19T12:14:35;9.98;;;9.07;;
18796;SDS011;9526;52.612;13.300;2022-08-19T12:17:00;9.73;;;8.85;;
18796;SDS011;9526;52.612;13.300;2022-08-19T12:19:26;11.02;;;8.75;;
18796;SDS011;9526;52.612;13.300;2022-08-19T12:21:51;14.93;;;9.68;;
18796;SDS011;9526;52.612;13.300;2022-08-19T12:24:16;10.57;;;9.50;;
18796;SDS011;9526;52.612;13.300;2022-08-19T12:26:44;10.93;;;9.93;;
18796;SDS011;9526;52.612;13.300;2022-08-19T12:29:15;10.55;;;9.65;;
18796;SDS011;9526;52.612;13.300;2022-08-19T12:31:44;11.95;;;10.40;;
18796;SDS011;9526;52.612;13.300;2022-08-19T12:34:07;11.13;;;10.00;;
18796;SDS011;9526;52.612;13.300;2022-08-19T12:36:31;11.32;;;10.23;;
18796;SDS011;9526;52.612;13.300;2022-08-19T12:38:57;11.88;;;10.68;;
18796;SDS011;9526;52.612;13.300;2022-08-19T12:41:21;10.25;;;9.30;;
18796;SDS011;9526;52.612;13.300;2022-08-19T12:43:45;11.32;;;10.13;;
18796;SDS011;9526;52.612;13.300;2022-08-19T12:46:12;11.68;;;10.57;;
18796;SDS011;9526;52.612;13.300;2022-08-19T12:48:38;11.93;;;10.55;;
18796;SDS011;9526;52.612;13.300;2022-08-19T12:51:06;12.07;;;10.63;;
18796;SDS011;9526;52.612;13.300;2022-08-19T12:53:32;11.63;;;10.52;;
18796;SDS011;9526;52.612;13.300;2022-08-19T12:55:59;12.25;;;11.07;;
18796;SDS011;9526;52.612;13.300;2022-08-19T12:58:28;11.70;;;10.50;;
18796;SDS011;9526;52.612;13.300;2022-08-19T13:00:55;14.20;;;11.13;;
18796;SDS011;9526;52.612;13.300;2022-08-19T13:03:20;11.77;;;10.57;;
18796;SDS011;9526;52.612;13.300;2022-08-19T13:05:50;12.80;;;10.65;;
18796;SDS011;9526;52.612;13.300;2022-08-19T13:08:14;11.63;;;10.52;;
18796;SDS011;9526;52.612;13.300;2022-08-19T13:10:38;12.38;;;11.07;;
18796;SDS011;9526;52.612;13.300;2022-08-19T13:13:02;11.80;;;10.65;;
18796;SDS011;9526;52.612;13.300;2022-08-19T13:15:32;15.02;;;10.95;;
18796;SDS011;9526;52.612;13.300;2022-08-19T13:17:57;11.45;;;10.35;;
18796;SDS011;9526;52.612;13.300;2022-08-19T13:20:22;10.70;;;9.70;;
18796;SDS011;9526;52.612;13.300;2022-08-19T13:22:46;11.63;;;10.18;;
18796;SDS011;9526;52.612;13.300;2022-08-19T13:25:13;11.82;;;9.73;;
18796;SDS011;9526;52.612;13.300;2022-08-19T13:27:40;12.98;;;10.25;;
18796;SDS011;9526;52.612;13.300;2022-08-19T13:30:05;11.65;;;10.45;;
18796;SDS011;9526;52.612;13.300;2022-08-19T13:32:48;12.55;;;11.15;;
18796;SDS011;9526;52.612;13.300;2022-08-19T13:35:30;11.07;;;10.00;;
18796;SDS011;9526;52.612;13.300;2022-08-19T13:37:54;11.68;;;10.10;;
18796;SDS011;9526;52.612;13.300;2022-08-19T13:40:19;12.60;;;11.30;;
18796;SDS011;9526;52.612;13.300;2022-08-19T13:42:48;12.10;;;10.90;;
18796;SDS011;9526;52.612;13.300;2022-08-19T13:45:14;11.60;;;10.40;;
18796;SDS011;9526;52.612;13.300;2022-08-19T13:47:41;11.27;;;10.07;;
18796;SDS011;9526;52.612;13.300;2022-08-19T13:50:06;10.63;;;9.52;;
18796;SDS011;9526;52.612;13.300;2022-08-19T13:52:33;11.07;;;9.98;;
18796;SDS011;9526;52.612;13.300;2022-08-19T13:54:57;10.88;;;9.50;;
18796;SDS011;9526;52.612;13.300;2022-08-19T13:57:20;11.43;;;10.23;;
18796;SDS011;9526;52.612;13.300;2022-08-19T13:59:44;11.20;;;10.15;;
18796;SDS011;9526;52.612;13.300;2022-08-19T14:02:08;11.13;;;10.02;;
18796;SDS011;9526;52.612;13.300;2022-08-19T14:04:32;11.57;;;10.40;;
18796;SDS011;9526;52.612;13.300;2022-08-19T14:06:55;10.95;;;9.60;;
18796;SDS011;9526;52.612;13.300;2022-08-19T14:09:20;10.52;;;9.48;;
18796;SDS011;9526;52.612;13.300;2022-08-19T14:11:44;12.10;;;9.57;;
18796;SDS011;9526;52.612;13.300;2022-08-19T14:14:08;9.88;;;8.95;;
18796;SDS011;9526;52.612;13.300;2022-08-19T14:16:37;11.02;;;9.55;;
18796;SDS011;9526;52.612;13.300;2022-08-19T14:19:01;10.80;;;9.50;;
18796;SDS011;9526;52.612;13.300;2022-08-19T14:21:24;10.90;;;9.82;;